Time;durP1;ratioP1;P1;durP2;ratioP2;P2;SDS_P1;SDS_P2;PMS_P1;PMS_P2;Temp;Humidity;BMP_temperature;BMP_pressure;BME280_temperature;BME280_humidity;BME280_pressure;Samples;Min_cycle;Max_cycle;Signal;HPM_P1;HPM_P2
2023/09/21 00:01:48;;;;;;;4.82;3.08;;;;;;;19.91;80.44;94902.41;5073276;28;20223;-82
2023/09/21 00:04:15;;;;;;;3.75;2.80;;;;;;;19.87;80.67;94905.75;5076009;28;20205;-82
2023/09/21 00:06:42;;;;;;;3.45;2.95;;;;;;;19.89;80.66;94898.44;5073947;28;20193;-82
2023/09/21 00:09:10;;;;;;;4.72;3.28;;;;;;;19.93;80.36;94889.88;5074201;28;20787;-82
2023/09/21 00:11:40;;;;;;;3.10;2.80;;;;;;;19.92;80.38;94883.06;5072628;28;20740;-82
2023/09/21 00:14:06;;;;;;;4.00;3.17;;;;;;;19.88;80.67;94884.59;5073122;28;20204;-83
2023/09/21 00:16:33;;;;;;;3.20;2.90;;;;;;;19.80;81.06;94892.94;5073380;28;20196;-83
2023/09/21 00:19:02;;;;;;;3.92;3.20;;;;;;;19.74;81.63;94898.34;5071343;28;20205;-82
2023/09/21 00:21:31;;;;;;;4.18;2.83;;;;;;;19.74;81.69;94895.75;5073716;28;20223;-83
2023/09/21 00:24:00;;;;;;;3.35;3.03;;;;;;;19.77;81.62;94887.41;5076017;28;20211;-81
2023/09/21 00:26:27;;;;;;;3.22;2.60;;;;;;;19.82;81.36;94887.44;5078256;28;20471;-83
2023/09/21 00:28:54;;;;;;;3.28;2.70;;;;;;;19.86;81.11;94876.22;5077948;28;20196;-82
2023/09/21 00:31:20;;;;;;;3.15;2.50;;;;;;;19.89;81.45;94880.16;5092484;28;20693;-83
2023/09/21 00:33:47;;;;;;;4.03;2.67;;;;;;;19.96;80.95;94868.47;5090844;28;20204;-82
2023/09/21 00:36:17;;;;;;;4.40;2.97;;;;;;;19.98;80.72;94870.84;5077133;28;20706;-82
2023/09/21 00:38:46;;;;;;;5.57;2.88;;;;;;;19.97;80.27;94850.97;5081950;28;20283;-80
2023/09/21 00:41:13;;;;;;;4.05;3.03;;;;;;;19.80;81.06;94866.81;5080018;28;20307;-83
2023/09/21 00:43:39;;;;;;;4.03;2.88;;;;;;;19.82;81.46;94864.69;5089661;28;20200;-82
2023/09/21 00:46:06;;;;;;;3.60;2.88;;;;;;;19.75;82.63;94889.47;5087050;28;20322;-82
2023/09/21 00:48:36;;;;;;;5.38;2.78;;;;;;;19.82;82.29;94893.44;5093407;28;20193;-81
2023/09/21 00:51:07;;;;;;;4.03;3.05;;;;;;;19.85;81.92;94881.69;5077331;28;20221;-82
2023/09/21 00:53:35;;;;;;;3.10;2.80;;;;;;;19.76;82.61;94884.00;5086083;28;20208;-83
2023/09/21 00:56:09;;;;;;;3.25;2.95;;;;;;;19.77;82.79;94885.59;5097050;28;20235;-83
2023/09/21 00:58:38;;;;;;;2.67;2.47;;;;;;;19.81;82.53;94881.44;5096109;28;20597;-81
2023/09/21 01:01:05;;;;;;;4.40;2.65;;;;;;;19.87;82.08;94867.34;5097350;28;20227;-82
2023/09/21 01:03:37;;;;;;;2.63;2.40;;;;;;;19.92;81.73;94867.38;5096469;28;20532;-83
2023/09/21 01:06:09;;;;;;;2.35;2.15;;;;;;;19.94;82.16;94864.53;5091611;28;20795;-82
2023/09/21 01:08:35;;;;;;;2.67;2.25;;;;;;;19.93;81.90;94863.75;5076630;28;20208;-82
2023/09/21 01:11:07;;;;;;;3.33;2.70;;;;;;;19.96;81.96;94865.84;5076990;28;20271;-82
2023/09/21 01:13:37;;;;;;;2.30;2.20;;;;;;;19.96;82.40;94865.06;5075714;28;20205;-82
2023/09/21 01:16:05;;;;;;;2.17;2.08;;;;;;;19.96;82.04;94858.00;5076649;28;20566;-82
2023/09/21 01:18:32;;;;;;;2.53;2.33;;;;;;;19.93;82.39;94860.34;5077917;28;20189;-82
2023/09/21 01:21:00;;;;;;;7.05;2.60;;;;;;;19.93;82.59;94863.75;5075922;28;20244;-81
2023/09/21 01:23:35;;;;;;;3.63;2.20;;;;;;;19.92;82.38;94862.16;5075803;28;20247;-82
2023/09/21 01:26:02;;;;;;;2.60;2.40;;;;;;;19.95;82.47;94856.44;5077062;28;20201;-82
2023/09/21 01:28:29;;;;;;;2.50;2.25;;;;;;;19.94;82.25;94847.03;5076895;28;20216;-82
2023/09/21 01:30:57;;;;;;;2.10;1.90;;;;;;;19.89;82.72;94849.59;5078140;28;20213;-82
2023/09/21 01:33:23;;;;;;;2.42;2.20;;;;;;;19.87;82.97;94849.06;5076265;28;20212;-82
2023/09/21 01:35:50;;;;;;;2.40;2.20;;;;;;;19.90;82.91;94848.56;5083121;28;20231;-82
2023/09/21 01:38:19;;;;;;;2.50;2.30;;;;;;;19.90;83.06;94848.56;5078402;28;20216;-81
2023/09/21 01:40:47;;;;;;;2.65;2.10;;;;;;;19.89;82.94;94847.00;5076797;28;20267;-82
2023/09/21 01:43:16;;;;;;;2.10;2.00;;;;;;;19.90;82.70;94839.94;5080362;28;20198;-82
2023/09/21 01:45:44;;;;;;;2.78;2.20;;;;;;;19.88;82.95;94834.16;5093832;28;20189;-82
2023/09/21 01:48:14;;;;;;;2.38;2.17;;;;;;;19.86;82.55;94823.97;5075924;28;20193;-81
2023/09/21 01:50:46;;;;;;;2.70;2.13;;;;;;;19.81;82.36;94828.41;5075130;28;20217;-83
2023/09/21 01:53:13;;;;;;;3.15;2.30;;;;;;;19.77;82.68;94824.72;5041909;28;20228;-82
2023/09/21 01:55:41;;;;;;;2.80;2.38;;;;;;;19.78;82.54;94818.44;5077556;28;20243;-82
2023/09/21 01:58:10;;;;;;;2.83;2.20;;;;;;;19.80;82.44;94813.75;5077004;28;20197;-82
2023/09/21 02:00:39;;;;;;;2.45;2.25;;;;;;;19.82;81.97;94804.63;5075783;28;20217;-83
2023/09/21 02:03:08;;;;;;;2.40;2.20;;;;;;;19.85;82.13;94804.09;5075377;28;20193;-82
2023/09/21 02:05:35;;;;;;;3.70;2.00;;;;;;;19.89;81.48;94786.09;5067956;28;20189;-82
2023/09/21 02:08:04;;;;;;;2.65;2.22;;;;;;;19.83;81.57;94792.34;5091405;28;20200;-81
2023/09/21 02:10:30;;;;;;;2.72;2.10;;;;;;;19.80;81.55;94790.25;5088804;28;20230;-82
2023/09/21 02:12:59;;;;;;;2.40;2.20;;;;;;;19.70;82.13;94795.41;5084283;28;20216;-83
2023/09/21 02:15:29;;;;;;;2.80;2.30;;;;;;;19.58;82.67;94806.06;5075811;28;20276;-81
2023/09/21 02:17:56;;;;;;;2.20;2.00;;;;;;;19.61;82.58;94795.09;5076599;28;20193;-82
2023/09/21 02:20:23;;;;;;;2.55;2.10;;;;;;;19.63;82.49;94793.00;5076450;28;20556;-83
2023/09/21 02:22:51;;;;;;;2.50;2.30;;;;;;;19.65;82.23;94785.72;5075462;28;20217;-80
2023/09/21 02:25:19;;;;;;;2.13;2.03;;;;;;;19.58;82.40;94788.56;5075542;28;20265;-82
2023/09/21 02:27:47;;;;;;;2.60;2.30;;;;;;;19.58;82.68;94791.16;5073269;28;20201;-82
2023/09/21 02:30:14;;;;;;;4.63;2.40;;;;;;;19.55;82.24;94791.66;5074904;28;20232;-82
2023/09/21 02:32:43;;;;;;;9.40;5.05;;;;;;;19.50;83.96;94809.91;5081510;28;20692;-82
2023/09/21 02:35:13;;;;;;;4.47;2.70;;;;;;;19.54;83.35;94802.38;5075171;28;20201;-82
2023/09/21 02:37:40;;;;;;;2.47;2.28;;;;;;;19.55;83.30;94793.50;5073496;28;20201;-82
2023/09/21 02:40:14;;;;;;;3.75;2.45;;;;;;;19.48;83.54;94795.50;5075074;28;20604;-82
2023/09/21 02:42:41;;;;;;;3.47;2.30;;;;;;;19.52;82.80;94786.94;5074541;28;20207;-83
2023/09/21 02:45:09;;;;;;;2.30;2.10;;;;;;;19.52;82.51;94780.94;5082038;28;20303;-83
2023/09/21 02:47:37;;;;;;;2.28;1.90;;;;;;;19.51;82.45;94774.13;5075183;28;20197;-80
2023/09/21 02:50:14;;;;;;;3.35;2.10;;;;;;;19.49;82.47;94771.75;5075890;28;20207;-81
2023/09/21 02:52:43;;;;;;;4.78;2.28;;;;;;;19.39;82.92;94776.13;5067587;28;20236;-83
2023/09/21 02:55:10;;;;;;;2.72;2.20;;;;;;;19.30;82.84;94773.97;5075482;28;20197;-83
2023/09/21 02:57:37;;;;;;;3.95;2.03;;;;;;;19.29;83.20;94780.22;5067238;28;20204;-83
2023/09/21 03:00:11;;;;;;;2.28;2.03;;;;;;;19.37;83.44;94772.97;5073964;28;20573;-81
2023/09/21 03:02:38;;;;;;;2.20;2.00;;;;;;;19.39;82.93;94763.06;5078079;28;20252;-83
2023/09/21 03:05:10;;;;;;;2.40;2.20;;;;;;;19.35;82.49;94754.97;5074175;28;20201;-82
2023/09/21 03:07:38;;;;;;;2.13;1.92;;;;;;;19.28;82.78;94754.38;5074311;28;20834;-82
2023/09/21 03:10:09;;;;;;;2.65;2.13;;;;;;;19.10;83.72;94773.81;5074592;28;20289;-82
2023/09/21 03:12:36;;;;;;;2.25;2.10;;;;;;;19.03;84.20;94782.91;5075469;28;20213;-82
2023/09/21 03:15:06;;;;;;;3.33;2.30;;;;;;;18.90;85.00;94794.50;5072670;28;20209;-82
2023/09/21 03:17:33;;;;;;;3.00;2.70;;;;;;;18.80;85.99;94808.25;5074076;28;20205;-82
2023/09/21 03:20:00;;;;;;;2.47;2.28;;;;;;;18.72;86.56;94808.69;5073957;28;20265;-82
2023/09/21 03:22:28;;;;;;;2.45;2.25;;;;;;;18.77;86.43;94802.75;5075095;28;20280;-81
2023/09/21 03:24:57;;;;;;;2.17;1.98;;;;;;;18.83;85.89;94794.72;5066121;28;20284;-80
2023/09/21 03:27:24;;;;;;;3.08;2.20;;;;;;;18.94;85.07;94778.13;5076531;28;20227;-83
2023/09/21 03:29:51;;;;;;;2.05;1.92;;;;;;;18.96;84.77;94770.06;5076590;28;20428;-82
2023/09/21 03:32:18;;;;;;;2.28;2.08;;;;;;;18.95;83.76;94758.03;5071146;28;20716;-80
2023/09/21 03:34:45;;;;;;;2.25;2.10;;;;;;;19.00;83.58;94744.25;5084877;28;20201;-81
2023/09/21 03:37:13;;;;;;;3.13;2.28;;;;;;;18.97;83.60;94748.94;5072450;28;20201;-82
2023/09/21 03:39:41;;;;;;;2.08;1.98;;;;;;;18.93;83.89;94749.69;5073699;28;20200;-81
2023/09/21 03:42:07;;;;;;;2.97;2.78;;;;;;;19.01;83.67;94740.63;5075766;28;20223;-83
2023/09/21 03:44:34;;;;;;;3.40;2.30;;;;;;;19.04;83.41;94738.31;5073178;28;20200;-83
2023/09/21 03:47:03;;;;;;;3.10;2.55;;;;;;;19.03;83.04;94738.56;5079580;28;20193;-83
2023/09/21 03:49:30;;;;;;;2.70;2.50;;;;;;;18.97;82.66;94716.84;5072361;28;20266;-82
2023/09/21 03:51:56;;;;;;;3.10;2.45;;;;;;;18.79;82.74;94709.41;5072394;28;20559;-83
2023/09/21 03:54:23;;;;;;;2.80;2.60;;;;;;;18.78;82.99;94710.44;5071547;28;20196;-81
2023/09/21 03:56:51;;;;;;;3.15;2.30;;;;;;;18.64;83.75;94733.53;5071641;28;20196;-82
2023/09/21 03:59:17;;;;;;;4.95;2.60;;;;;;;18.61;84.29;94731.41;5062701;28;20219;-81
2023/09/21 04:01:44;;;;;;;2.58;2.38;;;;;;;18.51;85.31;94744.31;5071169;28;20302;-81
2023/09/21 04:04:18;;;;;;;2.47;2.22;;;;;;;18.55;85.25;94745.41;5069529;28;20197;-82
2023/09/21 04:06:44;;;;;;;2.80;2.60;;;;;;;18.56;85.01;94739.94;5071494;28;20224;-82
2023/09/21 04:09:11;;;;;;;3.30;2.13;;;;;;;18.62;85.12;94731.16;5071291;28;20196;-83
2023/09/21 04:11:37;;;;;;;2.33;2.00;;;;;;;18.59;84.63;94733.47;5071698;28;20258;-82
2023/09/21 04:14:06;;;;;;;3.60;2.25;;;;;;;18.63;84.22;94714.50;5071225;28;20522;-82
2023/09/21 04:16:33;;;;;;;2.20;2.00;;;;;;;18.67;83.91;94708.75;5082648;28;20192;-81
2023/09/21 04:19:05;;;;;;;3.97;2.22;;;;;;;18.64;83.65;94710.06;5074091;28;20236;-82
2023/09/21 04:21:32;;;;;;;2.45;2.25;;;;;;;18.62;83.36;94699.09;5070471;28;20235;-82
2023/09/21 04:23:59;;;;;;;2.20;2.00;;;;;;;18.64;83.17;94702.25;5075879;28;20223;-82
2023/09/21 04:26:25;;;;;;;2.33;2.13;;;;;;;18.62;82.80;94691.28;5075097;28;20202;-83
2023/09/21 04:28:51;;;;;;;2.40;2.20;;;;;;;18.56;82.74;94689.63;5071883;28;20221;-81
2023/09/21 04:31:19;;;;;;;4.95;2.45;;;;;;;18.52;83.09;94697.16;5071297;28;20217;-80
2023/09/21 04:33:46;;;;;;;3.05;2.75;;;;;;;18.50;83.82;94714.84;5076601;28;20239;-81
2023/09/21 04:36:12;;;;;;;2.40;2.17;;;;;;;18.46;83.77;94708.56;5077028;28;20208;-81
2023/09/21 04:38:39;;;;;;;3.53;2.67;;;;;;;18.39;84.22;94717.63;5070489;28;20205;-82
2023/09/21 04:41:05;;;;;;;3.70;2.33;;;;;;;18.37;84.42;94715.25;5078342;28;20573;-81
2023/09/21 04:43:32;;;;;;;2.90;2.70;;;;;;;18.42;83.98;94704.09;5078966;28;20679;-82
2023/09/21 04:45:59;;;;;;;2.50;2.22;;;;;;;18.35;83.71;94695.69;5071838;28;20205;-81
2023/09/21 04:48:27;;;;;;;3.60;2.40;;;;;;;18.05;86.02;94733.44;5073989;28;20291;-82
2023/09/21 04:50:54;;;;;;;2.47;2.28;;;;;;;18.02;85.92;94739.13;5071131;28;20231;-80
2023/09/21 04:53:20;;;;;;;2.63;2.40;;;;;;;18.09;85.98;94738.94;5069973;28;20229;-82
2023/09/21 04:55:47;;;;;;;3.47;2.40;;;;;;;18.05;86.30;94748.28;5072002;28;20780;-81
2023/09/21 04:58:13;;;;;;;3.00;2.22;;;;;;;18.17;85.97;94749.72;5072548;28;20200;-82
2023/09/21 05:00:40;;;;;;;2.47;2.28;;;;;;;18.25;85.60;94736.25;5080190;28;20208;-81
2023/09/21 05:03:06;;;;;;;2.55;2.35;;;;;;;18.30;85.02;94720.66;5092255;28;20667;-82
2023/09/21 05:05:34;;;;;;;4.78;2.55;;;;;;;18.14;85.44;94729.34;5091460;28;20203;-81
2023/09/21 05:08:03;;;;;;;3.47;2.65;;;;;;;18.18;85.43;94734.88;5085643;28;20201;-81
2023/09/21 05:10:30;;;;;;;2.97;2.67;;;;;;;18.16;85.60;94731.72;5073295;28;20205;-81
2023/09/21 05:12:57;;;;;;;3.95;2.20;;;;;;;18.12;86.25;94741.03;5078311;28;20227;-82
2023/09/21 05:15:23;;;;;;;2.63;2.40;;;;;;;17.90;88.09;94765.28;5095654;28;20590;-81
2023/09/21 05:17:50;;;;;;;2.70;2.50;;;;;;;17.69;90.08;94793.91;5079322;28;20201;-81
2023/09/21 05:20:17;;;;;;;3.45;2.60;;;;;;;17.68;91.14;94816.56;5085849;28;20215;-81
2023/09/21 05:22:45;;;;;;;2.63;2.42;;;;;;;17.72;92.04;94817.63;5085826;28;20184;-81
2023/09/21 05:25:11;;;;;;;3.00;2.70;;;;;;;17.70;92.95;94827.53;5075943;28;20193;-79
2023/09/21 05:27:38;;;;;;;3.17;2.40;;;;;;;17.70;92.98;94826.72;5075825;28;20212;-82
2023/09/21 05:30:08;;;;;;;2.40;2.20;;;;;;;17.83;92.03;94816.75;5076376;28;20227;-82
2023/09/21 05:32:35;;;;;;;7.47;2.90;;;;;;;18.00;91.15;94806.28;5076325;28;20274;-82
2023/09/21 05:35:02;;;;;;;3.67;2.60;;;;;;;18.16;90.26;94794.25;5083295;28;20228;-82
2023/09/21 05:37:29;;;;;;;3.30;2.67;;;;;;;18.33;89.08;94778.53;5057088;28;20223;-82
2023/09/21 05:39:56;;;;;;;5.18;2.90;;;;;;;18.40;89.03;94781.75;5092453;28;20198;-82
2023/09/21 05:42:23;;;;;;;3.35;2.80;;;;;;;18.44;89.18;94785.44;5077233;28;20239;-81
2023/09/21 05:44:50;;;;;;;4.65;3.17;;;;;;;18.40;89.42;94779.13;5086167;28;20851;-83
2023/09/21 05:47:17;;;;;;;4.93;2.70;;;;;;;18.46;88.44;94760.72;5093112;28;20199;-83
2023/09/21 05:49:43;;;;;;;7.97;4.53;;;;;;;18.45;88.68;94766.16;5096069;28;20188;-85
2023/09/21 05:52:12;;;;;;;8.60;6.82;;;;;;;18.52;88.02;94751.88;5094862;28;20248;-85
2023/09/21 05:54:40;;;;;;;11.07;8.35;;;;;;;18.62;86.84;94736.38;5094474;28;20229;-84
2023/09/21 05:57:07;;;;;;;8.98;6.20;;;;;;;18.63;87.99;94747.59;5083843;28;20223;-84
2023/09/21 05:59:34;;;;;;;9.05;6.30;;;;;;;18.68;88.34;94757.28;5076414;28;20693;-82
2023/09/21 06:02:02;;;;;;;8.68;7.10;;;;;;;18.66;88.58;94757.53;5077109;28;20220;-84
2023/09/21 06:04:30;;;;;;;7.72;6.68;;;;;;;18.79;87.99;94748.53;5075733;28;20670;-83
2023/09/21 06:06:58;;;;;;;7.60;6.80;;;;;;;18.89;87.64;94746.78;5075853;28;20238;-83
2023/09/21 06:09:25;;;;;;;8.00;5.82;;;;;;;18.90;87.62;94745.75;5076727;28;20200;-84
2023/09/21 06:11:51;;;;;;;5.50;4.80;;;;;;;19.00;86.72;94733.81;5078308;28;20251;-85
2023/09/21 06:14:20;;;;;;;5.68;3.97;;;;;;;19.06;86.56;94724.97;5075541;28;20823;-85
2023/09/21 06:16:47;;;;;;;14.30;11.80;;;;;;;19.15;86.04;94718.28;5078388;28;20224;-84
2023/09/21 06:19:14;;;;;;;9.57;7.63;;;;;;;19.26;85.62;94712.06;5081515;28;20204;-85
2023/09/21 06:21:41;;;;;;;5.97;4.50;;;;;;;19.40;84.64;94699.38;5075312;28;20724;-85
2023/09/21 06:24:08;;;;;;;5.80;3.88;;;;;;;19.56;83.40;94672.34;5076002;28;20246;-85
2023/09/21 06:26:35;;;;;;;4.40;2.88;;;;;;;19.83;81.58;94643.44;5083250;28;20200;-81
2023/09/21 06:29:01;;;;;;;3.97;2.95;;;;;;;20.02;80.13;94608.72;5087835;28;20216;-82
2023/09/21 06:31:29;;;;;;;15.98;12.27;;;;;;;20.17;79.28;94588.91;5078128;28;20220;-83
2023/09/21 06:33:58;;;;;;;6.68;5.47;;;;;;;20.29;77.68;94551.00;5073875;28;20216;-82
2023/09/21 06:36:27;;;;;;;9.75;7.18;;;;;;;20.51;77.03;94531.66;5074027;28;20220;-81
2023/09/21 06:38:54;;;;;;;6.93;3.40;;;;;;;20.74;75.16;94504.94;5073934;28;20236;-83
2023/09/21 06:41:21;;;;;;;4.15;3.65;;;;;;;20.94;74.49;94480.56;5076170;28;20277;-83
2023/09/21 06:43:47;;;;;;;4.18;3.10;;;;;;;21.14;72.68;94430.72;5077917;28;20193;-83
2023/09/21 06:46:14;;;;;;;4.78;3.20;;;;;;;21.18;72.68;94404.75;5074906;28;20208;-82
2023/09/21 06:48:42;;;;;;;4.47;3.40;;;;;;;21.30;72.37;94413.91;5075932;28;20193;-82
2023/09/21 06:51:09;;;;;;;5.47;2.80;;;;;;;21.59;71.61;94400.84;5075480;28;20297;-81
2023/09/21 06:53:36;;;;;;;4.22;2.97;;;;;;;21.68;69.59;94341.59;5068669;28;20216;-83
2023/09/21 06:56:03;;;;;;;7.70;2.80;;;;;;;21.91;69.46;94328.78;5075798;28;20197;-81
2023/09/21 06:58:30;;;;;;;4.35;2.50;;;;;;;21.96;67.13;94276.31;5076383;28;20795;-83
2023/09/21 07:00:57;;;;;;;4.10;2.50;;;;;;;22.00;66.08;94214.44;5074280;28;20615;-82
2023/09/21 07:03:23;;;;;;;5.72;2.53;;;;;;;22.17;64.99;94191.16;5075610;28;20201;-82
2023/09/21 07:05:51;;;;;;;3.22;2.30;;;;;;;22.38;64.33;94183.78;5095022;28;20196;-82
2023/09/21 07:08:19;;;;;;;4.03;2.50;;;;;;;22.57;64.64;94179.31;5095668;28;20196;-82
2023/09/21 07:10:46;;;;;;;4.43;2.60;;;;;;;22.77;62.99;94135.44;5095794;28;20215;-82
2023/09/21 07:13:13;;;;;;;4.20;3.80;;;;;;;22.93;62.29;94106.06;5084937;28;20231;-82
2023/09/21 07:15:40;;;;;;;5.25;2.95;;;;;;;23.22;62.16;94092.66;5076925;28;20201;-82
2023/09/21 07:18:07;;;;;;;3.85;3.55;;;;;;;23.32;61.54;94060.16;5075402;28;20197;-82
2023/09/21 07:20:34;;;;;;;6.63;3.60;;;;;;;23.47;62.31;94091.41;5077845;28;20225;-82
2023/09/21 07:23:03;;;;;;;4.40;2.80;;;;;;;23.68;61.36;94058.38;5075815;28;20205;-81
2023/09/21 07:25:29;;;;;;;4.00;2.58;;;;;;;23.79;58.91;93980.13;5075887;28;20288;-81
2023/09/21 07:27:57;;;;;;;3.65;2.38;;;;;;;23.99;59.02;93981.50;5085815;28;20200;-82
2023/09/21 07:30:23;;;;;;;4.15;2.60;;;;;;;24.08;58.40;93933.13;5088779;28;20607;-81
2023/09/21 07:32:50;;;;;;;3.33;2.50;;;;;;;24.21;58.35;93933.38;5092518;28;20226;-81
2023/09/21 07:35:19;;;;;;;5.43;2.70;;;;;;;24.42;58.37;93956.25;5073548;28;20228;-81
2023/09/21 07:37:46;;;;;;;3.63;2.58;;;;;;;24.64;57.19;93912.50;5074090;28;20313;-82
2023/09/21 07:40:14;;;;;;;3.10;2.53;;;;;;;24.83;57.36;93914.88;5079252;28;20196;-81
2023/09/21 07:42:42;;;;;;;4.55;2.70;;;;;;;25.04;57.02;93913.25;5078383;28;20264;-81
2023/09/21 07:45:09;;;;;;;2.45;2.20;;;;;;;25.12;56.07;93865.09;5076958;28;20203;-82
2023/09/21 07:47:37;;;;;;;2.38;2.17;;;;;;;25.19;55.42;93818.00;5074857;28;20197;-81
2023/09/21 07:50:05;;;;;;;2.40;2.20;;;;;;;25.38;54.84;93778.94;5072792;28;20651;-82
2023/09/21 07:52:33;;;;;;;2.83;2.20;;;;;;;25.44;53.93;93734.72;5074828;28;20220;-82
2023/09/21 07:55:02;;;;;;;2.75;2.35;;;;;;;25.68;53.91;93756.06;5074864;28;20352;-80
2023/09/21 07:57:32;;;;;;;8.15;5.72;;;;;;;25.86;53.45;93721.72;5074702;28;20189;-81
2023/09/21 07:59:59;;;;;;;5.95;5.35;;;;;;;26.02;52.54;93676.03;5075590;28;20270;-82
2023/09/21 08:02:27;;;;;;;8.23;7.43;;;;;;;26.22;52.14;93658.69;5076028;28;20217;-82
2023/09/21 08:04:54;;;;;;;3.70;2.92;;;;;;;26.35;50.94;93607.56;5074257;28;20189;-81
2023/09/21 08:07:25;;;;;;;2.55;2.00;;;;;;;26.45;50.54;93574.72;5073717;28;20624;-81
2023/09/21 08:09:52;;;;;;;2.75;2.10;;;;;;;26.50;49.26;93505.91;5078464;28;20234;-81
2023/09/21 08:12:18;;;;;;;5.03;2.80;;;;;;;26.77;49.08;93533.53;5074883;28;20649;-82
2023/09/21 08:14:46;;;;;;;4.40;2.30;;;;;;;26.86;48.18;93470.06;5074551;28;20212;-82
2023/09/21 08:17:13;;;;;;;4.05;2.40;;;;;;;26.94;47.94;93472.63;5081187;28;20199;-82
2023/09/21 08:19:40;;;;;;;3.28;2.88;;;;;;;27.05;47.22;93433.34;5091931;28;20188;-82
2023/09/21 08:22:07;;;;;;;3.97;2.20;;;;;;;27.20;47.03;93422.09;5082999;28;20705;-83
2023/09/21 08:24:34;;;;;;;4.70;2.67;;;;;;;27.36;47.64;93430.84;5070930;28;20204;-83
2023/09/21 08:27:01;;;;;;;2.80;1.85;;;;;;;27.33;46.59;93378.66;5074390;28;20220;-81
2023/09/21 08:29:27;;;;;;;5.05;3.13;;;;;;;27.04;45.52;93348.03;5072025;28;20232;-82
2023/09/21 08:31:55;;;;;;;4.10;2.22;;;;;;;27.30;46.17;93383.88;5071101;28;20216;-82
2023/09/21 08:34:21;;;;;;;2.80;2.30;;;;;;;27.60;45.97;93381.69;5068288;28;20216;-82
2023/09/21 08:36:48;;;;;;;3.42;1.95;;;;;;;27.80;44.63;93328.59;5075247;28;20203;-82
2023/09/21 08:39:14;;;;;;;3.03;2.10;;;;;;;27.93;43.70;93271.09;5079244;28;20680;-82
2023/09/21 08:41:47;;;;;;;2.00;1.80;;;;;;;27.97;43.40;93231.50;5067139;28;20249;-81
2023/09/21 08:44:14;;;;;;;3.22;1.80;;;;;;;28.05;43.15;93214.69;5074003;28;20279;-81
2023/09/21 08:46:41;;;;;;;2.03;1.75;;;;;;;28.00;42.72;93214.94;5072770;28;20201;-82
2023/09/21 08:49:09;;;;;;;2.05;1.90;;;;;;;28.08;43.21;93248.41;5059917;28;20192;-82
2023/09/21 08:51:38;;;;;;;2.55;1.80;;;;;;;28.23;42.51;93212.47;5071848;28;20224;-83
2023/09/21 08:54:07;;;;;;;1.77;1.67;;;;;;;28.29;42.73;93195.22;5086567;28;20224;-82
2023/09/21 08:56:36;;;;;;;2.53;1.70;;;;;;;28.12;42.76;93193.66;5057464;28;20208;-82
2023/09/21 08:59:04;;;;;;;2.53;1.85;;;;;;;27.97;43.07;93216.41;5053390;28;20206;-81
2023/09/21 09:01:31;;;;;;;3.05;1.73;;;;;;;27.99;42.70;93219.47;5054414;28;20209;-82
2023/09/21 09:03:58;;;;;;;2.45;1.50;;;;;;;27.90;43.27;93221.53;5087675;28;20311;-81
2023/09/21 09:06:27;;;;;;;1.77;1.67;;;;;;;27.77;42.79;93198.94;5081604;28;20205;-81
2023/09/21 09:08:54;;;;;;;2.42;1.90;;;;;;;27.75;42.82;93198.50;5077267;28;20196;-83
2023/09/21 09:11:34;;;;;;;1.52;1.42;;;;;;;28.00;41.93;93128.41;5073505;28;20636;-82
2023/09/21 09:14:01;;;;;;;1.77;1.55;;;;;;;28.04;41.35;93091.47;5078603;28;20231;-83
2023/09/21 09:16:28;;;;;;;4.00;2.20;;;;;;;28.37;42.05;93147.38;5089188;28;20192;-82
2023/09/21 09:18:57;;;;;;;4.88;1.67;;;;;;;28.53;41.50;93113.66;5073556;28;20682;-82
2023/09/21 09:21:23;;;;;;;1.77;1.48;;;;;;;28.69;40.61;93062.47;5028898;28;20225;-81
2023/09/21 09:23:51;;;;;;;2.13;1.40;;;;;;;28.82;40.16;93043.47;5075417;28;20200;-81
2023/09/21 09:26:19;;;;;;;1.92;1.58;;;;;;;28.94;40.46;93047.81;5074178;28;20203;-83
2023/09/21 09:28:45;;;;;;;1.80;1.35;;;;;;;29.04;39.82;93046.47;5073808;28;20192;-82
2023/09/21 09:31:12;;;;;;;2.08;1.38;;;;;;;29.00;39.61;92996.09;5073071;28;20657;-83
2023/09/21 09:33:39;;;;;;;1.90;1.35;;;;;;;28.73;39.30;92979.34;5072396;28;20235;-82
2023/09/21 09:36:06;;;;;;;1.65;1.52;;;;;;;28.60;39.54;92985.94;5072651;28;20624;-82
2023/09/21 09:38:34;;;;;;;1.58;1.48;;;;;;;28.36;40.40;93037.31;5090283;28;20400;-82
2023/09/21 09:41:04;;;;;;;1.60;1.50;;;;;;;28.26;40.80;93035.25;5085633;28;20223;-82
2023/09/21 09:43:31;;;;;;;1.95;1.75;;;;;;;28.38;40.54;93055.50;5076255;28;20205;-82
2023/09/21 09:46:00;;;;;;;3.97;1.83;;;;;;;28.44;40.60;93070.00;5072581;28;20228;-81
2023/09/21 09:48:30;;;;;;;2.05;1.70;;;;;;;28.44;41.48;93113.13;5074156;28;20215;-83
2023/09/21 09:51:03;;;;;;;2.63;1.73;;;;;;;28.39;41.83;93117.91;5074109;28;20776;-81
2023/09/21 09:53:34;;;;;;;4.35;1.98;;;;;;;28.50;42.03;93135.53;5090143;28;20200;-82
2023/09/21 09:56:07;;;;;;;1.48;1.35;;;;;;;28.65;40.95;93109.34;5091407;28;20303;-82
2023/09/21 09:58:35;;;;;;;3.45;1.70;;;;;;;28.57;41.01;93092.53;5085533;28;20223;-82
2023/09/21 10:01:03;;;;;;;2.35;1.50;;;;;;;28.53;41.09;93097.75;5073636;28;20223;-83
2023/09/21 10:03:32;;;;;;;3.45;1.70;;;;;;;28.57;42.06;93137.56;5073008;28;20231;-82
2023/09/21 10:06:00;;;;;;;2.10;1.42;;;;;;;28.54;42.80;93191.97;5072585;28;20288;-81
2023/09/21 10:08:27;;;;;;;2.33;1.70;;;;;;;28.43;42.34;93127.47;5090735;28;20192;-82
2023/09/21 10:10:57;;;;;;;3.40;1.75;;;;;;;28.52;42.27;93161.66;5092028;28;20231;-82
2023/09/21 10:13:27;;;;;;;2.08;1.52;;;;;;;28.52;41.99;93128.00;5090884;28;20402;-82
2023/09/21 10:16:04;;;;;;;3.45;1.52;;;;;;;28.28;42.53;93140.75;5074106;28;20307;-82
2023/09/21 10:18:33;;;;;;;3.63;2.53;;;;;;;28.38;41.83;93124.31;5070258;28;20281;-82
2023/09/21 10:21:04;;;;;;;6.20;2.20;;;;;;;28.21;42.26;93117.56;5071343;28;20241;-82
2023/09/21 10:23:33;;;;;;;1.75;1.60;;;;;;;28.33;43.03;93165.06;5073426;28;20193;-82
2023/09/21 10:25:59;;;;;;;1.90;1.55;;;;;;;28.43;43.30;93182.28;5072688;28;20193;-82
2023/09/21 10:28:38;;;;;;;4.45;1.70;;;;;;;28.60;42.02;93133.44;5072999;28;20199;-83
2023/09/21 10:31:23;;;;;;;2.38;1.60;;;;;;;28.48;42.20;93113.94;5075913;28;20239;-82
2023/09/21 10:34:06;;;;;;;3.25;2.67;;;;;;;28.46;41.98;93097.66;5078468;28;20203;-82
2023/09/21 10:36:33;;;;;;;4.63;3.47;;;;;;;28.44;43.08;93186.47;5095645;28;20245;-83
2023/09/21 10:39:25;;;;;;;1.73;1.63;;;;;;;28.44;40.12;93001.16;5087732;28;20698;-81
2023/09/21 10:41:53;;;;;;;1.50;1.20;;;;;;;28.51;39.81;92930.56;5076451;28;20212;-81
2023/09/21 10:44:56;;;;;;;1.38;1.20;;;;;;;28.50;38.57;92888.56;5085409;28;20193;-83
2023/09/21 10:47:28;;;;;;;1.35;1.17;;;;;;;28.38;39.42;92904.63;5074806;28;20197;-83
2023/09/21 10:49:56;;;;;;;1.40;1.10;;;;;;;28.34;38.97;92872.03;5070518;28;20627;-82
2023/09/21 10:52:25;;;;;;;1.42;1.33;;;;;;;28.29;38.46;92857.22;5078320;28;20231;-83
2023/09/21 10:54:52;;;;;;;3.70;1.08;;;;;;;28.16;37.90;92824.88;5093047;28;20219;-83
2023/09/21 10:57:24;;;;;;;1.90;1.10;;;;;;;28.21;38.48;92876.00;5087377;28;20204;-82
2023/09/21 10:59:52;;;;;;;1.05;1.00;;;;;;;28.20;38.45;92862.00;5083841;28;20193;-83
2023/09/21 11:02:19;;;;;;;2.05;1.10;;;;;;;28.17;38.62;92847.56;5093621;28;20247;-83
2023/09/21 11:04:46;;;;;;;1.95;1.70;;;;;;;28.12;37.97;92797.59;5069997;28;20195;-82
2023/09/21 11:07:14;;;;;;;1.30;1.20;;;;;;;28.11;37.63;92763.53;5073612;28;20193;-83
2023/09/21 11:09:43;;;;;;;1.50;1.00;;;;;;;28.13;37.80;92779.81;5076357;28;20223;-84
2023/09/21 11:12:13;;;;;;;1.60;1.10;;;;;;;28.18;37.44;92774.25;5082459;28;20339;-84
2023/09/21 11:14:43;;;;;;;1.25;1.08;;;;;;;28.19;37.11;92755.41;5070496;28;20694;-83
2023/09/21 11:17:11;;;;;;;1.50;1.30;;;;;;;28.25;38.25;92806.16;5070764;28;20227;-83
2023/09/21 11:19:42;;;;;;;1.40;1.30;;;;;;;28.18;37.72;92790.13;5066593;28;20201;-84
2023/09/21 11:22:10;;;;;;;2.25;1.38;;;;;;;28.25;38.12;92816.72;5069138;28;20764;-82
2023/09/21 11:24:37;;;;;;;1.17;1.00;;;;;;;28.27;37.69;92766.09;5067251;28;20701;-84
2023/09/21 11:27:06;;;;;;;1.20;1.20;;;;;;;28.43;37.31;92762.19;5069004;28;20847;-84
2023/09/21 11:29:33;;;;;;;1.45;1.35;;;;;;;28.55;38.67;92811.50;5068521;28;20199;-84
2023/09/21 11:32:00;;;;;;;2.13;1.20;;;;;;;28.63;38.54;92831.66;5066862;28;20706;-84
2023/09/21 11:34:26;;;;;;;1.35;1.20;;;;;;;28.58;37.33;92751.78;5070064;28;20250;-83
2023/09/21 11:36:55;;;;;;;1.80;1.20;;;;;;;28.51;37.63;92758.50;5064756;28;20304;-84
2023/09/21 11:39:29;;;;;;;1.17;0.95;;;;;;;28.48;37.56;92753.16;5064306;28;20201;-84